Time;durP1;ratioP1;P1;durP2;ratioP2;P2;SDS_P1;SDS_P2;PMS_P1;PMS_P2;Temp;Humidity;BMP_temperature;BMP_pressure;BME280_temperature;BME280_humidity;BME280_pressure;Samples;Min_cycle;Max_cycle;Signal;HPM_P1;HPM_P2
2023/02/18 00:01:57;;;;;;;5.00;3.87;;;4.80;71.90;;;;;;5108164;27;20227;-73
2023/02/18 00:04:23;;;;;;;5.03;3.43;;;4.80;71.80;;;;;;5113295;27;20178;-72
2023/02/18 00:06:48;;;;;;;12.77;5.20;;;4.80;71.80;;;;;;5115554;27;20190;-72
2023/02/18 00:09:14;;;;;;;4.17;3.77;;;4.80;71.20;;;;;;5113240;27;20184;-72
2023/02/18 00:11:40;;;;;;;9.83;4.13;;;4.80;70.70;;;;;;5112540;27;20276;-73
2023/02/18 00:14:10;;;;;;;6.67;3.83;;;4.80;71.50;;;;;;5096086;27;20239;-72
2023/02/18 00:16:36;;;;;;;6.53;4.07;;;4.70;72.40;;;;;;5112157;27;20185;-73
2023/02/18 00:19:04;;;;;;;8.73;4.00;;;4.70;72.20;;;;;;5105884;27;20189;-73
2023/02/18 00:21:33;;;;;;;3.10;2.83;;;4.60;72.20;;;;;;5110895;27;20812;-73
2023/02/18 00:23:59;;;;;;;5.53;3.73;;;4.50;72.80;;;;;;5112207;27;20182;-73
2023/02/18 00:26:26;;;;;;;6.37;4.07;;;4.50;72.70;;;;;;5111466;27;20659;-73
2023/02/18 00:28:53;;;;;;;5.80;3.37;;;4.40;72.80;;;;;;5111316;27;20185;-72
2023/02/18 00:31:24;;;;;;;4.50;3.43;;;4.40;72.90;;;;;;5092234;27;20279;-72
2023/02/18 00:33:50;;;;;;;4.87;3.77;;;4.40;72.90;;;;;;5109535;27;20182;-72
2023/02/18 00:36:17;;;;;;;4.87;4.03;;;4.40;71.90;;;;;;5110574;27;20771;-72
2023/02/18 00:38:45;;;;;;;3.77;3.40;;;4.40;72.40;;;;;;5114344;27;20177;-73
2023/02/18 00:41:11;;;;;;;6.37;4.27;;;4.30;72.80;;;;;;5090871;27;20319;-72
2023/02/18 00:43:36;;;;;;;3.30;3.10;;;4.30;72.80;;;;;;5106230;27;20733;-73
2023/02/18 00:46:02;;;;;;;7.30;4.27;;;4.30;73.00;;;;;;5109585;27;20174;-72
2023/02/18 00:48:28;;;;;;;3.77;3.07;;;4.30;72.70;;;;;;5111997;27;20181;-73
2023/02/18 00:50:53;;;;;;;6.17;3.60;;;4.30;73.00;;;;;;5118059;27;20224;-73
2023/02/18 00:53:21;;;;;;;3.40;3.03;;;4.20;73.10;;;;;;5109055;27;20238;-72
2023/02/18 00:55:47;;;;;;;7.07;5.07;;;4.20;73.00;;;;;;5088854;27;20263;-72
2023/02/18 00:58:14;;;;;;;3.30;3.00;;;4.30;72.60;;;;;;5105090;27;20651;-72
2023/02/18 01:00:40;;;;;;;4.53;3.17;;;4.20;73.20;;;;;;5107555;27;20186;-73
2023/02/18 01:03:08;;;;;;;4.60;3.67;;;4.20;73.60;;;;;;5106896;27;20235;-73
2023/02/18 01:05:36;;;;;;;3.67;3.03;;;4.20;73.30;;;;;;5112525;27;20249;-73
2023/02/18 01:08:02;;;;;;;4.03;2.77;;;4.20;73.40;;;;;;5111402;27;20234;-73
2023/02/18 01:10:28;;;;;;;3.53;3.07;;;4.20;73.60;;;;;;5107510;27;20781;-73
2023/02/18 01:12:54;;;;;;;5.60;3.53;;;4.20;72.80;;;;;;5107219;27;20753;-73
2023/02/18 01:15:20;;;;;;;3.03;2.63;;;4.10;73.70;;;;;;5107777;27;20180;-73
2023/02/18 01:17:46;;;;;;;4.37;3.30;;;4.10;73.90;;;;;;5108278;27;20177;-72
2023/02/18 01:20:13;;;;;;;2.63;2.53;;;4.10;73.80;;;;;;5103301;27;21912;-72
2023/02/18 01:22:39;;;;;;;3.20;2.73;;;4.00;73.60;;;;;;5113713;27;20205;-73
2023/02/18 01:25:05;;;;;;;4.03;2.73;;;4.00;73.80;;;;;;5112866;27;20191;-73
2023/02/18 01:27:31;;;;;;;2.33;2.17;;;3.90;74.40;;;;;;5106128;27;20326;-73
2023/02/18 01:29:57;;;;;;;3.67;2.83;;;3.90;74.30;;;;;;5109086;27;20252;-72
2023/02/18 01:32:22;;;;;;;5.40;3.07;;;3.80;74.30;;;;;;5102663;27;20186;-72
2023/02/18 01:34:48;;;;;;;2.63;2.43;;;3.80;74.50;;;;;;5109746;27;20177;-72
2023/02/18 01:37:13;;;;;;;3.17;2.53;;;3.80;74.30;;;;;;5105871;27;20182;-73
2023/02/18 01:39:39;;;;;;;4.00;2.80;;;3.80;75.00;;;;;;5109125;27;20286;-72
2023/02/18 01:42:05;;;;;;;4.50;2.40;;;3.80;74.30;;;;;;5110616;27;20213;-72
2023/02/18 01:44:34;;;;;;;2.37;1.73;;;3.80;74.40;;;;;;5113755;27;20653;-72
2023/02/18 01:46:59;;;;;;;3.20;2.90;;;3.90;73.60;;;;;;5111887;27;20268;-72
2023/02/18 01:49:32;;;;;;;4.27;2.67;;;3.90;74.30;;;;;;5108073;28;20260;-72
2023/02/18 01:52:02;;;;;;;4.87;3.17;;;3.90;74.10;;;;;;5111424;27;21028;-73
2023/02/18 01:54:31;;;;;;;2.70;2.33;;;3.90;74.20;;;;;;5107877;28;20197;-72
2023/02/18 01:57:11;;;;;;;3.20;2.33;;;3.90;74.20;;;;;;5108816;28;20236;-73
2023/02/18 02:00:10;;;;;;;4.67;2.57;;;3.90;74.10;;;;;;5110412;28;20184;-72
2023/02/18 02:02:39;;;;;;;2.30;2.00;;;3.90;74.30;;;;;;5018406;28;20232;-73
2023/02/18 02:05:06;;;;;;;4.13;2.47;;;3.90;73.70;;;;;;5018071;28;20723;-72
2023/02/18 02:07:32;;;;;;;2.77;2.57;;;3.90;74.50;;;;;;5017172;28;20648;-72
2023/02/18 02:09:59;;;;;;;2.63;2.43;;;3.80;74.50;;;;;;5018064;28;20181;-73
2023/02/18 02:12:39;;;;;;;2.80;2.23;;;3.80;73.90;;;;;;5018209;28;20274;-72
2023/02/18 02:15:14;;;;;;;2.00;1.90;;;3.80;74.40;;;;;;5001855;28;20231;-72
2023/02/18 02:18:03;;;;;;;3.20;2.43;;;3.90;74.20;;;;;;5019265;28;20188;-72
2023/02/18 02:20:31;;;;;;;2.57;2.37;;;3.90;73.70;;;;;;5019563;28;20266;-72
2023/02/18 02:23:17;;;;;;;2.07;1.93;;;3.80;73.70;;;;;;5018856;28;20302;-72
2023/02/18 02:26:07;;;;;;;2.53;1.73;;;3.80;74.00;;;;;;4941302;29;20265;-72
2023/02/18 02:28:38;;;;;;;4.37;2.40;;;3.80;73.70;;;;;;4941943;29;20337;-72
2023/02/18 02:31:28;;;;;;;4.73;2.83;;;3.70;74.30;;;;;;4941607;28;21495;-72
2023/02/18 02:34:30;;;;;;;2.57;2.13;;;3.70;74.40;;;;;;4941057;29;20584;-72
2023/02/18 02:37:14;;;;;;;2.50;2.00;;;3.70;74.90;;;;;;4942148;28;20661;-72
2023/02/18 02:40:16;;;;;;;2.73;2.00;;;3.70;74.50;;;;;;4979104;28;20287;-72
2023/02/18 02:42:47;;;;;;;2.20;1.90;;;3.70;74.80;;;;;;5007576;28;20321;-72
2023/02/18 02:45:30;;;;;;;2.50;2.27;;;3.70;74.90;;;;;;5013160;28;20188;-72
2023/02/18 02:48:14;;;;;;;3.53;1.87;;;3.60;74.80;;;;;;5006861;28;20232;-72
2023/02/18 02:50:50;;;;;;;2.47;2.13;;;3.50;74.90;;;;;;4999161;28;21005;-72
2023/02/18 02:53:22;;;;;;;2.47;2.27;;;3.50;75.20;;;;;;5006230;28;20181;-72
2023/02/18 02:55:47;;;;;;;4.07;2.20;;;3.60;75.10;;;;;;5004652;28;20193;-71
2023/02/18 02:58:18;;;;;;;6.63;2.67;;;3.50;75.30;;;;;;5003656;28;20184;-72
2023/02/18 03:01:12;;;;;;;2.63;2.47;;;3.50;75.40;;;;;;5010698;28;20263;-71
2023/02/18 03:03:59;;;;;;;1.97;1.77;;;3.50;75.60;;;;;;5095667;27;20252;-72
2023/02/18 03:06:46;;;;;;;2.63;2.20;;;3.50;75.80;;;;;;5115066;27;20185;-72
2023/02/18 03:09:46;;;;;;;2.23;1.63;;;3.50;75.70;;;;;;5117732;27;20184;-74
2023/02/18 03:12:27;;;;;;;2.20;2.00;;;3.40;75.60;;;;;;5031117;28;20196;-72
2023/02/18 03:15:01;;;;;;;2.77;2.17;;;3.40;76.00;;;;;;5026660;28;20188;-72
2023/02/18 03:17:32;;;;;;;4.00;2.20;;;3.40;76.10;;;;;;5029789;28;20219;-72
2023/02/18 03:20:29;;;;;;;3.70;3.07;;;3.40;75.70;;;;;;5022785;28;20318;-72
2023/02/18 03:22:57;;;;;;;2.53;2.27;;;3.40;75.60;;;;;;4917535;29;20224;-72
2023/02/18 03:25:23;;;;;;;3.60;2.40;;;3.30;76.30;;;;;;4904426;29;20287;-73
2023/02/18 03:28:00;;;;;;;4.47;2.70;;;3.30;76.40;;;;;;4920362;29;20235;-72
2023/02/18 03:30:36;;;;;;;3.60;2.90;;;3.20;76.70;;;;;;4918055;29;20198;-71
2023/02/18 03:33:05;;;;;;;3.67;3.20;;;3.20;76.80;;;;;;4917306;29;20187;-72
2023/02/18 03:35:31;;;;;;;3.93;2.63;;;3.10;76.90;;;;;;4919005;29;20188;-72
2023/02/18 03:38:09;;;;;;;5.93;2.13;;;3.10;77.10;;;;;;4922613;29;20227;-72
2023/02/18 03:40:34;;;;;;;2.03;1.80;;;3.10;76.80;;;;;;4914121;29;20206;-72
2023/02/18 03:43:00;;;;;;;6.03;2.33;;;3.10;77.40;;;;;;4917318;29;20235;-72
2023/02/18 03:45:26;;;;;;;4.00;2.00;;;3.00;77.60;;;;;;4919129;29;20251;-72
2023/02/18 03:47:52;;;;;;;3.83;2.60;;;3.00;77.70;;;;;;4939396;28;20190;-72
2023/02/18 03:50:18;;;;;;;4.13;2.40;;;3.00;77.70;;;;;;4995359;28;20239;-72
2023/02/18 03:52:44;;;;;;;2.73;2.27;;;2.90;77.50;;;;;;4999875;28;20255;-72
2023/02/18 03:55:10;;;;;;;4.67;2.53;;;3.00;78.10;;;;;;4994744;28;20193;-72
2023/02/18 03:57:36;;;;;;;3.10;2.80;;;2.90;77.40;;;;;;4991762;28;20192;-72
2023/02/18 04:00:05;;;;;;;6.27;3.53;;;2.90;77.80;;;;;;5054096;27;20203;-72
2023/02/18 04:02:30;;;;;;;6.67;3.17;;;2.80;77.80;;;;;;5086171;28;20252;-72
2023/02/18 04:04:56;;;;;;;6.90;3.97;;;2.80;78.20;;;;;;5111584;27;20204;-72
2023/02/18 04:07:22;;;;;;;3.60;3.30;;;2.80;77.30;;;;;;5116576;27;20189;-72
2023/02/18 04:09:47;;;;;;;4.43;3.47;;;2.80;77.80;;;;;;5114094;27;20173;-72
2023/02/18 04:12:13;;;;;;;5.07;3.33;;;2.80;77.70;;;;;;5111583;27;20193;-72
2023/02/18 04:14:39;;;;;;;2.87;2.53;;;2.80;78.20;;;;;;5115163;27;20265;-72
2023/02/18 04:17:04;;;;;;;3.77;2.67;;;2.80;77.70;;;;;;5111666;27;20185;-74
2023/02/18 04:19:30;;;;;;;4.40;3.07;;;2.80;78.30;;;;;;5111071;27;20260;-73
2023/02/18 04:21:56;;;;;;;3.87;2.57;;;2.80;78.20;;;;;;5113874;27;20266;-74
2023/02/18 04:24:21;;;;;;;2.97;2.67;;;2.80;77.80;;;;;;5093581;27;20177;-71
2023/02/18 04:26:47;;;;;;;2.90;2.13;;;2.80;77.80;;;;;;5119188;27;20173;-73
2023/02/18 04:29:13;;;;;;;5.97;2.47;;;2.80;78.40;;;;;;5109060;27;20188;-71
2023/02/18 04:31:38;;;;;;;3.07;1.97;;;2.90;78.00;;;;;;5113960;27;20566;-71
2023/02/18 04:34:04;;;;;;;6.30;3.27;;;2.80;78.60;;;;;;5112159;27;20203;-72
2023/02/18 04:36:30;;;;;;;4.33;2.60;;;2.80;78.60;;;;;;5092415;27;20185;-72
2023/02/18 04:38:55;;;;;;;2.00;1.87;;;2.80;78.70;;;;;;5112324;27;20556;-72
2023/02/18 04:41:21;;;;;;;2.23;2.13;;;2.70;78.70;;;;;;5110293;27;20847;-72
2023/02/18 04:43:47;;;;;;;2.50;2.30;;;2.70;78.70;;;;;;5112922;27;20193;-72
2023/02/18 04:46:12;;;;;;;3.07;2.77;;;2.70;78.80;;;;;;5114014;27;20189;-72
2023/02/18 04:48:38;;;;;;;5.87;2.77;;;2.70;78.70;;;;;;5109899;27;20846;-72
2023/02/18 04:51:04;;;;;;;2.83;2.60;;;2.70;78.90;;;;;;5111173;27;21006;-73
2023/02/18 04:53:29;;;;;;;3.27;2.97;;;2.70;78.30;;;;;;5115595;27;20681;-71
2023/02/18 04:55:55;;;;;;;4.33;2.70;;;2.60;79.40;;;;;;5109823;27;20189;-71
2023/02/18 04:58:21;;;;;;;2.53;1.97;;;2.60;79.10;;;;;;5113002;27;20265;-73
2023/02/18 05:00:47;;;;;;;4.37;3.03;;;2.60;79.00;;;;;;5111016;27;20177;-73
2023/02/18 05:03:14;;;;;;;2.63;2.37;;;2.60;79.10;;;;;;5107827;27;21730;-74
2023/02/18 05:05:40;;;;;;;2.73;2.53;;;2.60;79.10;;;;;;5110780;27;20299;-73
2023/02/18 05:08:07;;;;;;;4.63;2.80;;;2.60;79.10;;;;;;5086129;27;20189;-73
2023/02/18 05:10:33;;;;;;;5.10;3.10;;;2.70;79.10;;;;;;5092568;27;20181;-73
2023/02/18 05:12:59;;;;;;;2.87;2.47;;;2.70;79.30;;;;;;5116038;27;20192;-73
2023/02/18 05:15:25;;;;;;;3.57;3.27;;;2.70;78.90;;;;;;5109554;27;20289;-73
2023/02/18 05:17:51;;;;;;;6.73;3.07;;;2.70;78.70;;;;;;5107839;27;20181;-73
2023/02/18 05:20:17;;;;;;;6.33;3.33;;;2.80;78.40;;;;;;5107863;27;20643;-72
2023/02/18 05:22:42;;;;;;;3.63;3.37;;;2.80;78.10;;;;;;5111727;27;20937;-73
2023/02/18 05:25:08;;;;;;;2.77;2.57;;;2.70;77.90;;;;;;5112274;27;20177;-73
2023/02/18 05:27:34;;;;;;;2.37;2.17;;;2.80;78.30;;;;;;5108514;27;20181;-73
2023/02/18 05:29:59;;;;;;;2.70;1.93;;;2.80;78.60;;;;;;5109580;27;20178;-73
2023/02/18 05:32:25;;;;;;;3.47;2.27;;;2.70;78.30;;;;;;5108405;27;20201;-72
2023/02/18 05:34:51;;;;;;;1.90;1.80;;;2.70;78.90;;;;;;5093529;28;20177;-72
2023/02/18 05:37:17;;;;;;;2.33;2.13;;;2.70;78.70;;;;;;5093599;27;20859;-72
2023/02/18 05:39:43;;;;;;;3.70;2.27;;;2.70;78.60;;;;;;5113357;27;20200;-72
2023/02/18 05:42:09;;;;;;;1.67;1.57;;;2.70;78.60;;;;;;5108800;27;21070;-73
2023/02/18 05:44:35;;;;;;;2.87;1.73;;;2.80;79.10;;;;;;5110676;27;20339;-73
2023/02/18 05:47:10;;;;;;;3.00;2.23;;;2.80;79.40;;;;;;5113401;27;20223;-73
2023/02/18 05:49:36;;;;;;;2.20;2.10;;;2.90;79.40;;;;;;5090301;27;20189;-73
2023/02/18 05:52:03;;;;;;;1.67;1.67;;;2.90;79.80;;;;;;5108249;27;20201;-73
2023/02/18 05:54:29;;;;;;;2.83;2.63;;;3.00;79.80;;;;;;5104659;28;20237;-73
2023/02/18 05:56:55;;;;;;;2.87;2.13;;;3.00;79.70;;;;;;5113303;27;20174;-73
2023/02/18 05:59:21;;;;;;;3.37;3.07;;;3.10;79.90;;;;;;5114847;28;20196;-73
2023/02/18 06:01:48;;;;;;;2.07;1.97;;;3.20;79.50;;;;;;5109054;28;20240;-73
2023/02/18 06:04:14;;;;;;;3.30;2.17;;;3.20;79.30;;;;;;5105764;28;20656;-73
2023/02/18 06:06:40;;;;;;;2.97;2.47;;;3.30;79.00;;;;;;5111438;28;20992;-73
2023/02/18 06:09:06;;;;;;;3.07;2.70;;;3.40;79.10;;;;;;5093726;28;20205;-73
2023/02/18 06:11:33;;;;;;;3.83;3.27;;;3.50;78.20;;;;;;5112238;28;20173;-73
2023/02/18 06:13:58;;;;;;;4.40;2.93;;;3.60;78.30;;;;;;5107597;28;20192;-73
2023/02/18 06:16:24;;;;;;;5.00;2.97;;;3.70;77.60;;;;;;5111482;28;20673;-73
2023/02/18 06:18:50;;;;;;;3.53;3.03;;;3.70;78.30;;;;;;5109308;28;20180;-73
2023/02/18 06:21:15;;;;;;;3.00;2.70;;;3.80;78.00;;;;;;5111071;28;20213;-74
2023/02/18 06:23:41;;;;;;;3.90;3.10;;;3.80;76.60;;;;;;5109632;28;20673;-73
2023/02/18 06:26:07;;;;;;;3.43;3.23;;;3.90;77.30;;;;;;5106064;28;20192;-73
2023/02/18 06:28:32;;;;;;;4.37;3.33;;;4.00;76.50;;;;;;5093239;27;20267;-73
2023/02/18 06:30:58;;;;;;;5.47;2.90;;;4.10;76.80;;;;;;5119184;27;20704;-74
2023/02/18 06:33:24;;;;;;;3.57;2.63;;;4.20;75.80;;;;;;5108556;27;20199;-74
2023/02/18 06:35:59;;;;;;;2.90;2.47;;;4.30;75.20;;;;;;5116410;27;20169;-73
2023/02/18 06:38:25;;;;;;;2.60;2.40;;;4.30;75.00;;;;;;5113933;27;20192;-73
2023/02/18 06:40:51;;;;;;;1.67;1.50;;;4.40;75.20;;;;;;5112166;27;21020;-72
2023/02/18 06:43:18;;;;;;;4.90;2.30;;;4.40;75.20;;;;;;5114283;27;20221;-73
2023/02/18 06:45:43;;;;;;;3.77;2.40;;;4.40;75.80;;;;;;5093277;27;20257;-73
2023/02/18 06:48:10;;;;;;;2.73;2.30;;;4.40;75.60;;;;;;5115356;27;20181;-73
2023/02/18 06:50:35;;;;;;;6.33;2.83;;;4.50;75.60;;;;;;5110297;27;21357;-73
2023/02/18 06:53:01;;;;;;;5.20;3.07;;;4.60;75.20;;;;;;5097705;27;20185;-73
2023/02/18 06:55:27;;;;;;;4.40;3.40;;;4.70;75.30;;;;;;5111834;27;20252;-74
2023/02/18 06:57:52;;;;;;;3.23;2.90;;;4.80;75.50;;;;;;5097626;27;20181;-73
2023/02/18 07:00:18;;;;;;;3.07;2.63;;;4.90;75.70;;;;;;5093998;27;20183;-73
2023/02/18 07:02:44;;;;;;;4.07;2.83;;;5.00;75.60;;;;;;5096912;28;20263;-73
2023/02/18 07:05:10;;;;;;;3.27;2.47;;;5.10;75.40;;;;;;5093757;27;20673;-73
2023/02/18 07:07:36;;;;;;;2.77;2.57;;;5.20;75.50;;;;;;5093958;27;20211;-72
2023/02/18 07:10:02;;;;;;;8.33;2.87;;;5.30;75.50;;;;;;5118417;27;20238;-73
2023/02/18 07:12:28;;;;;;;4.60;2.67;;;5.40;75.50;;;;;;5116792;27;20625;-73
2023/02/18 07:14:54;;;;;;;2.80;2.60;;;5.50;75.00;;;;;;5116472;27;20207;-73
2023/02/18 07:17:19;;;;;;;5.90;3.30;;;5.70;74.70;;;;;;5114618;27;20201;-73
2023/02/18 07:19:45;;;;;;;6.80;3.63;;;5.90;74.10;;;;;;5111486;27;20663;-73
2023/02/18 07:22:11;;;;;;;2.97;2.70;;;6.00;73.10;;;;;;5095067;27;20215;-72
2023/02/18 07:24:36;;;;;;;4.07;3.63;;;6.20;73.70;;;;;;5091214;27;20290;-73
2023/02/18 07:27:02;;;;;;;3.07;2.83;;;6.30;74.00;;;;;;5094075;27;20184;-73
2023/02/18 07:29:28;;;;;;;4.50;3.60;;;6.50;73.10;;;;;;5110947;27;20273;-73
2023/02/18 07:31:53;;;;;;;5.37;4.13;;;6.70;72.50;;;;;;5114051;27;20564;-73
2023/02/18 07:34:19;;;;;;;7.13;3.90;;;6.90;71.10;;;;;;5114107;27;20270;-73
2023/02/18 07:36:45;;;;;;;7.73;3.40;;;7.00;70.50;;;;;;5089128;28;20192;-72
2023/02/18 07:39:11;;;;;;;5.27;2.80;;;7.20;70.20;;;;;;5107158;27;20185;-73
2023/02/18 07:41:36;;;;;;;3.60;3.23;;;7.30;69.90;;;;;;5112447;27;20613;-73
2023/02/18 07:44:03;;;;;;;3.30;3.00;;;7.50;69.70;;;;;;5110385;27;20945;-73
2023/02/18 07:46:28;;;;;;;9.73;3.70;;;7.70;69.30;;;;;;5107516;27;20182;-73
2023/02/18 07:48:56;;;;;;;3.90;3.27;;;8.00;68.60;;;;;;5088648;27;20178;-73
2023/02/18 07:51:21;;;;;;;2.97;2.77;;;8.20;68.30;;;;;;5113059;27;20669;-74
2023/02/18 07:53:47;;;;;;;4.83;4.33;;;8.40;67.20;;;;;;5110133;27;20189;-73
2023/02/18 07:56:13;;;;;;;6.10;4.00;;;8.50;66.50;;;;;;5109519;27;20182;-72
2023/02/18 07:58:39;;;;;;;9.60;4.07;;;8.60;66.20;;;;;;5110230;27;20682;-72
2023/02/18 08:01:10;;;;;;;7.00;3.17;;;8.60;66.00;;;;;;5113181;27;20184;-72
2023/02/18 08:03:37;;;;;;;4.70;3.77;;;8.70;66.00;;;;;;5108534;27;20264;-75
2023/02/18 08:06:04;;;;;;;5.40;4.43;;;8.70;65.50;;;;;;5113358;27;20206;-75
2023/02/18 08:08:31;;;;;;;7.43;4.10;;;8.70;65.40;;;;;;5109333;27;20173;-75
2023/02/18 08:11:02;;;;;;;5.17;3.50;;;8.80;65.40;;;;;;5100868;27;20616;-75
2023/02/18 08:13:29;;;;;;;4.90;3.73;;;8.90;65.50;;;;;;5090289;27;20193;-76
2023/02/18 08:15:55;;;;;;;4.00;3.30;;;9.00;65.20;;;;;;5100370;27;20205;-76
2023/02/18 08:18:23;;;;;;;4.73;3.70;;;9.30;65.10;;;;;;5094028;27;20194;-74
2023/02/18 08:20:50;;;;;;;7.13;4.03;;;9.50;64.60;;;;;;5099285;27;20200;-75
2023/02/18 08:23:18;;;;;;;5.73;4.10;;;9.80;64.50;;;;;;5100824;27;21070;-75
2023/02/18 08:25:53;;;;;;;5.43;4.27;;;10.50;64.10;;;;;;5097904;27;20226;-74
2023/02/18 08:28:21;;;;;;;5.65;4.15;;;11.20;61.60;;;;;;5097613;27;20609;-74
2023/02/18 08:30:49;;;;;;;7.80;4.90;;;11.40;60.60;;;;;;5075599;27;20213;-74
2023/02/18 08:33:15;;;;;;;5.75;4.30;;;11.30;60.10;;;;;;5100092;27;20201;-74
2023/02/18 08:35:41;;;;;;;11.90;5.00;;;11.20;60.80;;;;;;5099143;27;20239;-74
2023/02/18 08:38:07;;;;;;;8.57;5.07;;;11.10;60.60;;;;;;5093445;27;20917;-76
2023/02/18 08:40:33;;;;;;;5.88;4.82;;;11.10;61.20;;;;;;5100281;27;20234;-73
2023/02/18 08:42:58;;;;;;;6.38;4.38;;;11.10;61.20;;;;;;5095927;27;21511;-75
2023/02/18 08:45:24;;;;;;;11.73;5.28;;;11.00;61.40;;;;;;5087193;27;20715;-75
2023/02/18 08:47:50;;;;;;;8.45;5.05;;;11.00;61.90;;;;;;5095231;27;20257;-76
2023/02/18 08:50:15;;;;;;;13.13;4.85;;;11.00;61.70;;;;;;5092481;27;20209;-74
2023/02/18 08:52:42;;;;;;;9.13;5.00;;;11.00;62.00;;;;;;5102233;27;20211;-75
2023/02/18 08:55:08;;;;;;;19.42;5.65;;;11.00;62.10;;;;;;5096775;27;20201;-75
2023/02/18 08:57:33;;;;;;;10.70;5.68;;;11.10;62.20;;;;;;5087548;27;21438;-76
2023/02/18 08:59:59;;;;;;;8.32;5.13;;;11.30;62.20;;;;;;5087086;27;20206;-76
2023/02/18 09:02:25;;;;;;;6.30;4.80;;;11.50;61.60;;;;;;5085426;27;20225;-78
2023/02/18 09:04:51;;;;;;;7.72;4.57;;;11.70;61.40;;;;;;5092756;27;20202;-78
2023/02/18 09:07:17;;;;;;;8.50;5.05;;;11.90;60.70;;;;;;5094537;27;20200;-79
2023/02/18 09:09:43;;;;;;;7.30;5.30;;;12.10;60.60;;;;;;5076011;27;20204;-78
2023/02/18 09:12:08;;;;;;;5.78;5.20;;;12.20;59.40;;;;;;5073614;28;20209;-76
2023/02/18 09:14:34;;;;;;;9.38;5.63;;;12.20;59.10;;;;;;5089615;27;20205;-77
2023/02/18 09:17:00;;;;;;;7.38;5.50;;;12.40;59.90;;;;;;5093954;27;20206;-76
2023/02/18 09:19:26;;;;;;;10.60;5.88;;;12.50;59.40;;;;;;5076241;27;20232;-76
2023/02/18 09:21:52;;;;;;;9.15;5.85;;;12.60;58.60;;;;;;5088222;27;21271;-75
2023/02/18 09:24:20;;;;;;;10.18;6.03;;;12.80;58.70;;;;;;5098947;27;20210;-78
2023/02/18 09:26:46;;;;;;;9.68;5.38;;;13.00;58.80;;;;;;5088294;27;20203;-76
2023/02/18 09:29:12;;;;;;;8.15;5.38;;;13.50;59.10;;;;;;5091584;27;20205;-77
2023/02/18 09:31:38;;;;;;;8.63;5.50;;;14.10;58.00;;;;;;5085072;27;20759;-77
2023/02/18 09:34:04;;;;;;;8.07;5.30;;;14.80;56.10;;;;;;5092983;27;20213;-77
2023/02/18 09:36:31;;;;;;;11.93;6.30;;;15.70;55.10;;;;;;5087496;27;20201;-77
2023/02/18 09:38:58;;;;;;;9.30;5.70;;;16.50;54.70;;;;;;5094126;27;20209;-79
2023/02/18 09:41:46;;;;;;;11.43;6.10;;;17.30;53.20;;;;;;5090469;27;20221;-78
2023/02/18 09:44:23;;;;;;;6.25;5.47;;;18.00;52.20;;;;;;5094187;27;20197;-76
2023/02/18 09:46:57;;;;;;;8.70;5.90;;;18.60;51.20;;;;;;5089123;27;20217;-77
2023/02/18 09:49:26;;;;;;;11.93;5.63;;;19.20;50.80;;;;;;5097438;27;20205;-76
2023/02/18 09:51:54;;;;;;;10.15;6.13;;;20.00;50.90;;;;;;5095959;27;20220;-77
2023/02/18 09:54:21;;;;;;;9.65;6.00;;;20.80;50.10;;;;;;5093090;27;20426;-78
2023/02/18 09:56:47;;;;;;;12.07;6.60;;;21.50;49.50;;;;;;5086029;27;20202;-78
2023/02/18 09:59:19;;;;;;;9.75;6.20;;;22.10;47.90;;;;;;5088147;28;20201;-77
2023/02/18 10:01:47;;;;;;;11.10;6.15;;;22.30;46.00;;;;;;5091721;28;20235;-77
2023/02/18 10:04:22;;;;;;;8.48;6.40;;;22.30;46.80;;;;;;5090127;28;20201;-77
2023/02/18 10:06:50;;;;;;;8.98;5.93;;;22.00;45.90;;;;;;5062302;28;20716;-77
2023/02/18 10:09:24;;;;;;;9.70;6.90;;;21.90;46.70;;;;;;5092469;28;20197;-79
2023/02/18 10:11:59;;;;;;;11.52;6.38;;;22.00;46.30;;;;;;5089909;28;20219;-79
2023/02/18 10:14:25;;;;;;;10.38;6.85;;;22.50;47.80;;;;;;5094901;28;20238;-78
2023/02/18 10:16:52;;;;;;;7.53;6.50;;;23.10;46.40;;;;;;5096166;28;20296;-79
2023/02/18 10:19:23;;;;;;;8.23;6.05;;;23.70;44.80;;;;;;5089323;28;20201;-79
2023/02/18 10:21:50;;;;;;;8.68;6.25;;;24.30;46.40;;;;;;5097522;28;20312;-79
2023/02/18 10:24:40;;;;;;;16.27;6.25;;;25.00;44.20;;;;;;5092999;28;20200;-79
2023/02/18 10:27:10;;;;;;;6.78;5.38;;;25.80;43.80;;;;;;5104254;28;20205;-78
2023/02/18 10:29:36;;;;;;;8.10;5.10;;;26.30;43.40;;;;;;5089357;28;20271;-76
2023/02/18 10:32:35;;;;;;;11.00;5.50;;;26.30;42.70;;;;;;5086152;28;20189;-77
2023/02/18 10:35:13;;;;;;;7.07;5.82;;;26.10;40.30;;;;;;5104505;28;20177;-75
2023/02/18 10:37:51;;;;;;;6.13;4.97;;;25.30;40.70;;;;;;5108616;28;20182;-75
2023/02/18 10:40:29;;;;;;;8.27;5.63;;;24.90;42.80;;;;;;5104642;28;20206;-76
2023/02/18 10:42:59;;;;;;;5.30;4.30;;;24.90;43.40;;;;;;5104845;28;20332;-75
2023/02/18 10:45:39;;;;;;;7.65;5.80;;;25.00;42.60;;;;;;5104952;28;20186;-76
2023/02/18 10:48:21;;;;;;;9.07;6.80;;;25.10;43.20;;;;;;5104921;28;20185;-76
2023/02/18 10:50:47;;;;;;;8.63;6.35;;;25.00;42.70;;;;;;5087738;28;20753;-77
2023/02/18 10:53:33;;;;;;;9.18;6.30;;;25.00;42.50;;;;;;5106349;28;20184;-76
2023/02/18 10:56:00;;;;;;;9.65;5.72;;;25.30;41.70;;;;;;5097740;28;21443;-76
2023/02/18 10:58:53;;;;;;;7.10;6.03;;;25.60;41.60;;;;;;5092005;28;20209;-77
2023/02/18 11:01:20;;;;;;;4.30;3.90;;;25.90;43.10;;;;;;5114165;27;21164;-76
2023/02/18 11:03:49;;;;;;;2.88;2.67;;;26.30;41.90;;;;;;5092943;28;20224;-76
2023/02/18 11:06:48;;;;;;;5.90;5.28;;;26.50;40.30;;;;;;5097863;28;20803;-77
2023/02/18 11:09:53;;;;;;;6.30;5.70;;;26.20;40.60;;;;;;5096692;28;20248;-78
2023/02/18 11:12:23;;;;;;;7.28;5.00;;;25.30;39.80;;;;;;5001351;28;20219;-77
2023/02/18 11:15:15;;;;;;;5.72;4.55;;;25.20;41.60;;;;;;5004890;28;20220;-76
2023/02/18 11:17:42;;;;;;;4.32;3.97;;;25.50;42.00;;;;;;5005607;28;20237;-77
2023/02/18 11:20:35;;;;;;;5.82;3.72;;;25.90;42.40;;;;;;5009699;28;20212;-79
2023/02/18 11:23:06;;;;;;;5.65;4.45;;;25.90;39.90;;;;;;4969759;28;20687;-75
2023/02/18 11:25:38;;;;;;;3.45;3.25;;;25.90;40.60;;;;;;4969604;28;20398;-76
2023/02/18 11:28:11;;;;;;;3.90;2.50;;;25.80;40.30;;;;;;4969148;28;20623;-77
2023/02/18 11:30:43;;;;;;;3.08;1.55;;;25.50;39.00;;;;;;4966657;28;20209;-76
2023/02/18 11:33:23;;;;;;;4.22;2.70;;;25.30;40.30;;;;;;4968146;28;21048;-76
2023/02/18 11:35:54;;;;;;;2.13;1.67;;;25.10;39.50;;;;;;4971095;28;20295;-77
2023/02/18 11:38:25;;;;;;;1.75;1.65;;;25.20;40.30;;;;;;4976442;28;20225;-74
2023/02/18 11:40:56;;;;;;;4.13;2.20;;;25.20;41.70;;;;;;4973141;28;20224;-76
2023/02/18 11:43:27;;;;;;;3.38;1.60;;;25.50;39.60;;;;;;4960031;28;20228;-75
2023/02/18 11:46:10;;;;;;;1.20;1.20;;;25.80;40.20;;;;;;4972879;28;20194;-75
2023/02/18 11:48:35;;;;;;;0.82;0.75;;;25.90;38.50;;;;;;5034366;28;20222;-76
2023/02/18 11:51:03;;;;;;;0.98;0.70;;;25.60;38.90;;;;;;5044806;28;20258;-75
2023/02/18 11:53:34;;;;;;;1.05;0.90;;;25.70;39.10;;;;;;5026662;28;20856;-75
2023/02/18 11:56:04;;;;;;;0.85;0.57;;;25.60;38.00;;;;;;5046371;28;20214;-76
2023/02/18 11:58:56;;;;;;;1.83;0.80;;;25.50;38.40;;;;;;5031739;28;20277;-75
2023/02/18 12:01:45;;;;;;;1.42;1.02;;;25.40;37.50;;;;;;5109867;27;20262;-75
2023/02/18 12:04:30;;;;;;;0.60;0.60;;;24.90;37.80;;;;;;5108306;27;20189;-76
2023/02/18 12:07:05;;;;;;;1.05;1.02;;;24.60;38.40;;;;;;5100989;27;20403;-77
2023/02/18 12:09:43;;;;;;;0.57;0.57;;;24.10;39.50;;;;;;5100347;27;20268;-75
2023/02/18 12:12:26;;;;;;;1.58;0.80;;;24.00;39.70;;;;;;5096854;27;21237;-76
2023/02/18 12:14:54;;;;;;;1.75;1.08;;;24.00;39.40;;;;;;5097578;27;20201;-78
2023/02/18 12:17:20;;;;;;;1.13;1.05;;;24.10;39.80;;;;;;5098935;27;20188;-76
2023/02/18 12:20:22;;;;;;;1.95;1.10;;;24.30;40.20;;;;;;5096544;27;20270;-75
2023/02/18 12:23:09;;;;;;;1.45;1.45;;;24.30;39.10;;;;;;5014168;28;20940;-77
2023/02/18 12:26:01;;;;;;;2.88;1.98;;;24.20;41.50;;;;;;4998377;28;20980;-76
2023/02/18 12:28:33;;;;;;;2.58;1.60;;;23.90;40.30;;;;;;5010923;28;20628;-77
2023/02/18 12:31:30;;;;;;;2.13;2.03;;;23.70;40.40;;;;;;4995712;28;20627;-76
2023/02/18 12:34:14;;;;;;;1.80;1.70;;;23.70;41.10;;;;;;5006609;28;20541;-75
2023/02/18 12:36:49;;;;;;;1.65;1.48;;;24.00;40.50;;;;;;5009149;28;20269;-77
2023/02/18 12:39:26;;;;;;;1.85;1.75;;;24.30;40.50;;;;;;5012749;28;20261;-75
2023/02/18 12:42:02;;;;;;;2.25;2.05;;;24.60;40.80;;;;;;5011611;28;20743;-76
2023/02/18 12:44:43;;;;;;;1.92;1.83;;;24.70;40.50;;;;;;5013563;28;20215;-75
2023/02/18 12:47:39;;;;;;;1.58;1.52;;;24.70;40.40;;;;;;4995620;28;20211;-75
2023/02/18 12:50:14;;;;;;;3.28;2.03;;;24.70;40.00;;;;;;5010773;28;20214;-77
2023/02/18 12:52:51;;;;;;;1.67;1.58;;;24.50;40.20;;;;;;4994114;28;20355;-75
2023/02/18 12:55:26;;;;;;;2.17;1.55;;;24.20;40.40;;;;;;5002187;28;20604;-76
2023/02/18 12:58:16;;;;;;;2.08;1.80;;;23.90;40.80;;;;;;5011385;28;20239;-75
2023/02/18 13:00:47;;;;;;;2.78;1.75;;;23.80;41.80;;;;;;5089794;27;20241;-77
2023/02/18 13:03:36;;;;;;;3.58;1.80;;;23.80;41.60;;;;;;5095259;27;20397;-75
2023/02/18 13:06:21;;;;;;;2.45;2.17;;;23.70;41.20;;;;;;5093686;27;21450;-75
2023/02/18 13:09:08;;;;;;;2.35;1.92;;;23.70;41.20;;;;;;5095294;27;20224;-75
2023/02/18 13:11:34;;;;;;;1.52;0.98;;;23.60;42.00;;;;;;5094318;27;20228;-76